sensor_id;sensor_type;location;lat;lon;timestamp;P1;durP1;ratioP1;P2;durP2;ratioP2
24216;SDS011;12356;49.386;8.688;2022-10-16T00:01:30;3.20;;;1.80;;
24216;SDS011;12356;49.386;8.688;2022-10-16T00:04:01;3.15;;;1.58;;
24216;SDS011;12356;49.386;8.688;2022-10-16T00:06:32;4.10;;;1.60;;
24216;SDS011;12356;49.386;8.688;2022-10-16T00:09:03;2.03;;;1.70;;
24216;SDS011;12356;49.386;8.688;2022-10-16T00:11:35;3.05;;;1.60;;
24216;SDS011;12356;49.386;8.688;2022-10-16T00:14:09;6.00;;;1.60;;
24216;SDS011;12356;49.386;8.688;2022-10-16T00:16:42;5.40;;;2.08;;
24216;SDS011;12356;49.386;8.688;2022-10-16T00:19:13;2.55;;;1.60;;
24216;SDS011;12356;49.386;8.688;2022-10-16T00:21:43;3.25;;;1.52;;
24216;SDS011;12356;49.386;8.688;2022-10-16T00:24:14;2.20;;;1.33;;
24216;SDS011;12356;49.386;8.688;2022-10-16T00:26:45;6.00;;;1.55;;
24216;SDS011;12356;49.386;8.688;2022-10-16T00:29:19;3.33;;;1.50;;
24216;SDS011;12356;49.386;8.688;2022-10-16T00:31:49;6.78;;;1.80;;
24216;SDS011;12356;49.386;8.688;2022-10-16T00:34:20;2.65;;;1.40;;
24216;SDS011;12356;49.386;8.688;2022-10-16T00:36:50;2.83;;;1.60;;
24216;SDS011;12356;49.386;8.688;2022-10-16T00:39:21;1.90;;;1.40;;
24216;SDS011;12356;49.386;8.688;2022-10-16T00:41:52;5.88;;;1.60;;
24216;SDS011;12356;49.386;8.688;2022-10-16T00:44:42;2.17;;;1.48;;
24216;SDS011;12356;49.386;8.688;2022-10-16T00:48:00;6.63;;;1.50;;
24216;SDS011;12356;49.386;8.688;2022-10-16T00:50:12;4.30;;;1.77;;
24216;SDS011;12356;49.386;8.688;2022-10-16T00:55:15;2.83;;;1.80;;
24216;SDS011;12356;49.386;8.688;2022-10-16T00:57:47;4.75;;;1.50;;
24216;SDS011;12356;49.386;8.688;2022-10-16T01:00:20;6.47;;;1.80;;
24216;SDS011;12356;49.386;8.688;2022-10-16T01:02:56;4.00;;;1.60;;
24216;SDS011;12356;49.386;8.688;2022-10-16T01:05:33;9.32;;;1.42;;
24216;SDS011;12356;49.386;8.688;2022-10-16T01:08:22;2.20;;;1.50;;
24216;SDS011;12356;49.386;8.688;2022-10-16T01:11:09;6.88;;;1.65;;
24216;SDS011;12356;49.386;8.688;2022-10-16T01:13:52;2.80;;;1.58;;
24216;SDS011;12356;49.386;8.688;2022-10-16T01:19:19;4.57;;;1.85;;
24216;SDS011;12356;49.386;8.688;2022-10-16T01:22:06;4.75;;;1.80;;
24216;SDS011;12356;49.386;8.688;2022-10-16T01:24:39;4.07;;;1.65;;
24216;SDS011;12356;49.386;8.688;2022-10-16T01:27:20;4.50;;;1.83;;
24216;SDS011;12356;49.386;8.688;2022-10-16T01:30:04;4.28;;;1.90;;
24216;SDS011;12356;49.386;8.688;2022-10-16T01:32:41;3.60;;;1.90;;
24216;SDS011;12356;49.386;8.688;2022-10-16T01:35:18;4.95;;;1.70;;
24216;SDS011;12356;49.386;8.688;2022-10-16T01:37:59;6.63;;;2.17;;
24216;SDS011;12356;49.386;8.688;2022-10-16T01:40:36;2.50;;;1.58;;
24216;SDS011;12356;49.386;8.688;2022-10-16T01:43:12;3.50;;;1.70;;
24216;SDS011;12356;49.386;8.688;2022-10-16T01:45:47;4.15;;;1.70;;
24216;SDS011;12356;49.386;8.688;2022-10-16T01:48:19;4.82;;;1.80;;
24216;SDS011;12356;49.386;8.688;2022-10-16T01:53:45;6.88;;;1.73;;
24216;SDS011;12356;49.386;8.688;2022-10-16T01:56:19;6.57;;;1.90;;
24216;SDS011;12356;49.386;8.688;2022-10-16T01:58:53;4.85;;;1.50;;
24216;SDS011;12356;49.386;8.688;2022-10-16T02:01:31;3.85;;;1.65;;
24216;SDS011;12356;49.386;8.688;2022-10-16T02:04:08;4.05;;;1.77;;
24216;SDS011;12356;49.386;8.688;2022-10-16T02:06:43;5.57;;;2.05;;
24216;SDS011;12356;49.386;8.688;2022-10-16T02:09:13;4.07;;;2.10;;
24216;SDS011;12356;49.386;8.688;2022-10-16T02:11:46;3.50;;;1.90;;
24216;SDS011;12356;49.386;8.688;2022-10-16T02:14:19;4.43;;;2.08;;
24216;SDS011;12356;49.386;8.688;2022-10-16T02:16:52;6.60;;;1.90;;
24216;SDS011;12356;49.386;8.688;2022-10-16T02:19:22;6.05;;;2.25;;
24216;SDS011;12356;49.386;8.688;2022-10-16T02:21:57;5.88;;;1.70;;
24216;SDS011;12356;49.386;8.688;2022-10-16T02:32:48;7.68;;;2.00;;
24216;SDS011;12356;49.386;8.688;2022-10-16T02:35:20;4.32;;;2.00;;
24216;SDS011;12356;49.386;8.688;2022-10-16T02:37:53;3.65;;;1.70;;
24216;SDS011;12356;49.386;8.688;2022-10-16T02:40:25;6.68;;;2.10;;
24216;SDS011;12356;49.386;8.688;2022-10-16T02:42:57;2.65;;;1.75;;
24216;SDS011;12356;49.386;8.688;2022-10-16T02:45:28;4.07;;;1.77;;
24216;SDS011;12356;49.386;8.688;2022-10-16T02:47:59;7.78;;;1.95;;
24216;SDS011;12356;49.386;8.688;2022-10-16T02:50:29;4.80;;;1.98;;
24216;SDS011;12356;49.386;8.688;2022-10-16T02:53:00;6.18;;;1.73;;
24216;SDS011;12356;49.386;8.688;2022-10-16T02:55:31;2.28;;;1.80;;
24216;SDS011;12356;49.386;8.688;2022-10-16T02:58:01;6.15;;;1.90;;
24216;SDS011;12356;49.386;8.688;2022-10-16T03:00:32;4.68;;;1.70;;
24216;SDS011;12356;49.386;8.688;2022-10-16T03:03:02;5.22;;;1.80;;
24216;SDS011;12356;49.386;8.688;2022-10-16T03:05:33;2.97;;;1.73;;
24216;SDS011;12356;49.386;8.688;2022-10-16T03:08:04;2.85;;;1.60;;
24216;SDS011;12356;49.386;8.688;2022-10-16T03:10:34;5.03;;;1.80;;
24216;SDS011;12356;49.386;8.688;2022-10-16T03:13:05;8.13;;;2.13;;
24216;SDS011;12356;49.386;8.688;2022-10-16T03:15:35;3.90;;;1.75;;
24216;SDS011;12356;49.386;8.688;2022-10-16T03:18:06;2.92;;;1.60;;
24216;SDS011;12356;49.386;8.688;2022-10-16T03:20:37;3.72;;;1.88;;
24216;SDS011;12356;49.386;8.688;2022-10-16T03:23:07;2.10;;;1.60;;
24216;SDS011;12356;49.386;8.688;2022-10-16T03:25:38;5.30;;;1.92;;
24216;SDS011;12356;49.386;8.688;2022-10-16T03:28:09;6.95;;;2.00;;
24216;SDS011;12356;49.386;8.688;2022-10-16T03:30:40;7.15;;;1.77;;
24216;SDS011;12356;49.386;8.688;2022-10-16T03:33:11;6.10;;;1.98;;
24216;SDS011;12356;49.386;8.688;2022-10-16T03:35:41;6.57;;;1.65;;
24216;SDS011;12356;49.386;8.688;2022-10-16T03:38:12;3.53;;;2.13;;
24216;SDS011;12356;49.386;8.688;2022-10-16T03:40:43;5.30;;;1.85;;
24216;SDS011;12356;49.386;8.688;2022-10-16T03:43:13;5.50;;;1.80;;
24216;SDS011;12356;49.386;8.688;2022-10-16T03:45:44;5.32;;;1.75;;
24216;SDS011;12356;49.386;8.688;2022-10-16T03:48:14;4.68;;;1.70;;
24216;SDS011;12356;49.386;8.688;2022-10-16T03:50:45;4.65;;;1.73;;
24216;SDS011;12356;49.386;8.688;2022-10-16T03:55:48;3.97;;;1.73;;
24216;SDS011;12356;49.386;8.688;2022-10-16T03:58:19;7.93;;;1.98;;
24216;SDS011;12356;49.386;8.688;2022-10-16T04:00:50;6.03;;;1.70;;
24216;SDS011;12356;49.386;8.688;2022-10-16T04:03:21;4.10;;;1.60;;
24216;SDS011;12356;49.386;8.688;2022-10-16T04:05:52;5.25;;;1.50;;
24216;SDS011;12356;49.386;8.688;2022-10-16T04:08:23;4.07;;;1.67;;
24216;SDS011;12356;49.386;8.688;2022-10-16T04:10:54;2.78;;;1.52;;
24216;SDS011;12356;49.386;8.688;2022-10-16T04:13:24;4.45;;;1.85;;
24216;SDS011;12356;49.386;8.688;2022-10-16T04:15:55;6.65;;;1.85;;
24216;SDS011;12356;49.386;8.688;2022-10-16T04:18:26;5.00;;;1.90;;
24216;SDS011;12356;49.386;8.688;2022-10-16T04:21:01;4.18;;;1.80;;
24216;SDS011;12356;49.386;8.688;2022-10-16T04:23:36;4.53;;;1.70;;
24216;SDS011;12356;49.386;8.688;2022-10-16T04:26:06;4.22;;;1.70;;
24216;SDS011;12356;49.386;8.688;2022-10-16T04:28:37;3.42;;;1.80;;
24216;SDS011;12356;49.386;8.688;2022-10-16T04:31:08;3.97;;;1.65;;
24216;SDS011;12356;49.386;8.688;2022-10-16T04:33:38;2.70;;;1.60;;
24216;SDS011;12356;49.386;8.688;2022-10-16T04:36:13;2.45;;;1.55;;
24216;SDS011;12356;49.386;8.688;2022-10-16T04:38:43;4.25;;;1.48;;
24216;SDS011;12356;49.386;8.688;2022-10-16T04:41:14;5.88;;;1.50;;
24216;SDS011;12356;49.386;8.688;2022-10-16T04:43:45;4.60;;;1.67;;
24216;SDS011;12356;49.386;8.688;2022-10-16T04:46:15;3.63;;;1.60;;
24216;SDS011;12356;49.386;8.688;2022-10-16T04:48:46;4.35;;;1.38;;
24216;SDS011;12356;49.386;8.688;2022-10-16T04:51:17;2.08;;;1.45;;
24216;SDS011;12356;49.386;8.688;2022-10-16T04:53:48;2.20;;;1.50;;
24216;SDS011;12356;49.386;8.688;2022-10-16T04:56:19;3.13;;;1.40;;
24216;SDS011;12356;49.386;8.688;2022-10-16T04:58:50;4.22;;;1.40;;
24216;SDS011;12356;49.386;8.688;2022-10-16T05:01:21;5.57;;;1.60;;
24216;SDS011;12356;49.386;8.688;2022-10-16T05:03:52;4.75;;;1.40;;
24216;SDS011;12356;49.386;8.688;2022-10-16T05:06:22;2.65;;;1.50;;
24216;SDS011;12356;49.386;8.688;2022-10-16T05:08:53;3.33;;;1.50;;
24216;SDS011;12356;49.386;8.688;2022-10-16T05:11:23;5.70;;;1.30;;
24216;SDS011;12356;49.386;8.688;2022-10-16T05:13:54;2.47;;;1.50;;
24216;SDS011;12356;49.386;8.688;2022-10-16T05:16:25;2.28;;;1.73;;
24216;SDS011;12356;49.386;8.688;2022-10-16T05:18:55;1.85;;;1.55;;
24216;SDS011;12356;49.386;8.688;2022-10-16T05:21:26;5.20;;;1.40;;
24216;SDS011;12356;49.386;8.688;2022-10-16T05:23:57;3.63;;;1.60;;
24216;SDS011;12356;49.386;8.688;2022-10-16T05:26:27;3.90;;;1.33;;
24216;SDS011;12356;49.386;8.688;2022-10-16T05:28:58;2.78;;;1.60;;
24216;SDS011;12356;49.386;8.688;2022-10-16T05:31:29;3.75;;;1.40;;
24216;SDS011;12356;49.386;8.688;2022-10-16T05:33:59;5.43;;;1.48;;
24216;SDS011;12356;49.386;8.688;2022-10-16T05:36:30;2.88;;;1.48;;
24216;SDS011;12356;49.386;8.688;2022-10-16T05:39:01;1.92;;;1.40;;
24216;SDS011;12356;49.386;8.688;2022-10-16T05:41:32;3.65;;;1.50;;
24216;SDS011;12356;49.386;8.688;2022-10-16T05:44:04;8.38;;;1.70;;
24216;SDS011;12356;49.386;8.688;2022-10-16T05:46:35;4.60;;;1.58;;
24216;SDS011;12356;49.386;8.688;2022-10-16T05:49:06;4.55;;;1.55;;
24216;SDS011;12356;49.386;8.688;2022-10-16T05:51:36;4.03;;;1.58;;
24216;SDS011;12356;49.386;8.688;2022-10-16T05:54:07;1.85;;;1.50;;
24216;SDS011;12356;49.386;8.688;2022-10-16T05:56:38;3.05;;;1.40;;
24216;SDS011;12356;49.386;8.688;2022-10-16T05:59:09;5.60;;;1.33;;
24216;SDS011;12356;49.386;8.688;2022-10-16T06:01:39;3.80;;;1.60;;
24216;SDS011;12356;49.386;8.688;2022-10-16T06:04:10;3.17;;;1.60;;
24216;SDS011;12356;49.386;8.688;2022-10-16T06:06:41;3.05;;;1.30;;
24216;SDS011;12356;49.386;8.688;2022-10-16T06:09:12;2.90;;;1.50;;
24216;SDS011;12356;49.386;8.688;2022-10-16T06:11:43;2.55;;;1.38;;
24216;SDS011;12356;49.386;8.688;2022-10-16T06:14:13;1.52;;;1.20;;
24216;SDS011;12356;49.386;8.688;2022-10-16T06:16:44;4.22;;;1.40;;
24216;SDS011;12356;49.386;8.688;2022-10-16T06:19:14;3.78;;;1.40;;
24216;SDS011;12356;49.386;8.688;2022-10-16T06:21:46;8.38;;;1.90;;
24216;SDS011;12356;49.386;8.688;2022-10-16T06:24:16;1.40;;;1.30;;
24216;SDS011;12356;49.386;8.688;2022-10-16T06:26:47;3.25;;;1.38;;
24216;SDS011;12356;49.386;8.688;2022-10-16T06:29:18;6.40;;;1.50;;
24216;SDS011;12356;49.386;8.688;2022-10-16T06:31:48;2.20;;;1.45;;
24216;SDS011;12356;49.386;8.688;2022-10-16T06:34:19;2.88;;;1.40;;
24216;SDS011;12356;49.386;8.688;2022-10-16T06:36:50;2.80;;;1.50;;
24216;SDS011;12356;49.386;8.688;2022-10-16T06:39:20;5.63;;;1.42;;
24216;SDS011;12356;49.386;8.688;2022-10-16T06:41:51;4.20;;;1.42;;
24216;SDS011;12356;49.386;8.688;2022-10-16T06:44:21;4.25;;;1.50;;
24216;SDS011;12356;49.386;8.688;2022-10-16T06:46:52;4.32;;;1.50;;
24216;SDS011;12356;49.386;8.688;2022-10-16T06:49:23;3.60;;;1.73;;
24216;SDS011;12356;49.386;8.688;2022-10-16T06:51:54;4.03;;;1.52;;
24216;SDS011;12356;49.386;8.688;2022-10-16T06:54:25;2.30;;;1.67;;
24216;SDS011;12356;49.386;8.688;2022-10-16T06:56:56;3.53;;;1.40;;
24216;SDS011;12356;49.386;8.688;2022-10-16T06:59:26;3.28;;;1.38;;
24216;SDS011;12356;49.386;8.688;2022-10-16T07:01:57;8.50;;;1.40;;
24216;SDS011;12356;49.386;8.688;2022-10-16T07:04:28;4.20;;;1.50;;
24216;SDS011;12356;49.386;8.688;2022-10-16T07:07:00;3.78;;;1.50;;
24216;SDS011;12356;49.386;8.688;2022-10-16T07:09:31;2.17;;;1.40;;
24216;SDS011;12356;49.386;8.688;2022-10-16T07:12:01;3.65;;;1.40;;
24216;SDS011;12356;49.386;8.688;2022-10-16T07:14:32;4.22;;;1.75;;
24216;SDS011;12356;49.386;8.688;2022-10-16T07:17:03;4.00;;;1.60;;
24216;SDS011;12356;49.386;8.688;2022-10-16T07:19:33;3.97;;;1.50;;
24216;SDS011;12356;49.386;8.688;2022-10-16T07:22:04;4.20;;;1.80;;
24216;SDS011;12356;49.386;8.688;2022-10-16T07:24:35;2.30;;;1.50;;
24216;SDS011;12356;49.386;8.688;2022-10-16T07:27:05;5.10;;;1.80;;
24216;SDS011;12356;49.386;8.688;2022-10-16T07:29:36;4.65;;;1.60;;
24216;SDS011;12356;49.386;8.688;2022-10-16T07:32:07;6.97;;;1.73;;
24216;SDS011;12356;49.386;8.688;2022-10-16T07:34:37;1.42;;;1.33;;
24216;SDS011;12356;49.386;8.688;2022-10-16T07:37:08;9.15;;;1.70;;
24216;SDS011;12356;49.386;8.688;2022-10-16T07:39:39;1.60;;;1.35;;
24216;SDS011;12356;49.386;8.688;2022-10-16T07:42:09;3.38;;;1.38;;
24216;SDS011;12356;49.386;8.688;2022-10-16T07:44:40;4.45;;;1.50;;
24216;SDS011;12356;49.386;8.688;2022-10-16T07:47:11;3.35;;;1.30;;
24216;SDS011;12356;49.386;8.688;2022-10-16T07:49:41;4.60;;;1.40;;
24216;SDS011;12356;49.386;8.688;2022-10-16T07:52:12;6.25;;;1.60;;
24216;SDS011;12356;49.386;8.688;2022-10-16T07:54:42;2.50;;;1.52;;
24216;SDS011;12356;49.386;8.688;2022-10-16T07:57:13;5.57;;;1.60;;
24216;SDS011;12356;49.386;8.688;2022-10-16T07:59:49;3.78;;;1.50;;
24216;SDS011;12356;49.386;8.688;2022-10-16T08:02:19;2.63;;;1.33;;
24216;SDS011;12356;49.386;8.688;2022-10-16T08:04:50;4.03;;;1.48;;
24216;SDS011;12356;49.386;8.688;2022-10-16T08:07:21;2.40;;;1.45;;
24216;SDS011;12356;49.386;8.688;2022-10-16T08:09:51;5.85;;;1.30;;
24216;SDS011;12356;49.386;8.688;2022-10-16T08:12:22;4.45;;;1.63;;
24216;SDS011;12356;49.386;8.688;2022-10-16T08:14:53;2.15;;;1.50;;
24216;SDS011;12356;49.386;8.688;2022-10-16T08:17:23;4.10;;;1.63;;
24216;SDS011;12356;49.386;8.688;2022-10-16T08:19:54;3.83;;;1.60;;
24216;SDS011;12356;49.386;8.688;2022-10-16T08:22:25;4.15;;;1.73;;
24216;SDS011;12356;49.386;8.688;2022-10-16T08:24:55;2.85;;;1.75;;
24216;SDS011;12356;49.386;8.688;2022-10-16T08:27:30;4.63;;;1.40;;
24216;SDS011;12356;49.386;8.688;2022-10-16T08:30:02;3.53;;;1.30;;
24216;SDS011;12356;49.386;8.688;2022-10-16T08:32:33;4.57;;;1.35;;
24216;SDS011;12356;49.386;8.688;2022-10-16T08:35:04;2.60;;;1.30;;
24216;SDS011;12356;49.386;8.688;2022-10-16T08:37:34;15.07;;;1.50;;
24216;SDS011;12356;49.386;8.688;2022-10-16T08:40:06;4.07;;;1.15;;
24216;SDS011;12356;49.386;8.688;2022-10-16T08:42:47;3.28;;;1.42;;
24216;SDS011;12356;49.386;8.688;2022-10-16T08:45:33;5.53;;;1.27;;
24216;SDS011;12356;49.386;8.688;2022-10-16T08:48:11;3.40;;;1.27;;
24216;SDS011;12356;49.386;8.688;2022-10-16T08:51:24;4.18;;;1.40;;
24216;SDS011;12356;49.386;8.688;2022-10-16T08:54:33;10.98;;;1.90;;
24216;SDS011;12356;49.386;8.688;2022-10-16T08:57:14;2.45;;;1.40;;
24216;SDS011;12356;49.386;8.688;2022-10-16T08:59:50;2.25;;;1.50;;
24216;SDS011;12356;49.386;8.688;2022-10-16T09:13:53;3.58;;;1.23;;
24216;SDS011;12356;49.386;8.688;2022-10-16T09:16:39;2.80;;;1.23;;
24216;SDS011;12356;49.386;8.688;2022-10-16T09:19:33;4.53;;;1.50;;
24216;SDS011;12356;49.386;8.688;2022-10-16T09:22:12;4.93;;;1.48;;
24216;SDS011;12356;49.386;8.688;2022-10-16T09:24:45;2.85;;;1.50;;
24216;SDS011;12356;49.386;8.688;2022-10-16T09:27:16;2.60;;;1.20;;
24216;SDS011;12356;49.386;8.688;2022-10-16T09:29:47;5.93;;;1.20;;
24216;SDS011;12356;49.386;8.688;2022-10-16T09:32:18;2.97;;;1.40;;
24216;SDS011;12356;49.386;8.688;2022-10-16T09:34:52;4.50;;;1.40;;
24216;SDS011;12356;49.386;8.688;2022-10-16T09:37:26;5.32;;;1.35;;
24216;SDS011;12356;49.386;8.688;2022-10-16T09:39:57;5.72;;;1.50;;
24216;SDS011;12356;49.386;8.688;2022-10-16T09:42:30;4.68;;;1.60;;
24216;SDS011;12356;49.386;8.688;2022-10-16T09:45:02;1.60;;;1.30;;
24216;SDS011;12356;49.386;8.688;2022-10-16T09:47:43;5.40;;;1.50;;
24216;SDS011;12356;49.386;8.688;2022-10-16T09:50:25;6.07;;;1.92;;
24216;SDS011;12356;49.386;8.688;2022-10-16T09:53:10;3.78;;;1.65;;
24216;SDS011;12356;49.386;8.688;2022-10-16T09:55:49;4.43;;;1.63;;
24216;SDS011;12356;49.386;8.688;2022-10-16T09:58:21;4.25;;;1.90;;
24216;SDS011;12356;49.386;8.688;2022-10-16T10:00:53;6.75;;;2.00;;
24216;SDS011;12356;49.386;8.688;2022-10-16T10:03:33;2.92;;;1.85;;
24216;SDS011;12356;49.386;8.688;2022-10-16T10:06:26;9.25;;;2.00;;
24216;SDS011;12356;49.386;8.688;2022-10-16T10:09:01;6.28;;;1.88;;
24216;SDS011;12356;49.386;8.688;2022-10-16T10:17:12;4.20;;;1.55;;
24216;SDS011;12356;49.386;8.688;2022-10-16T10:22:29;5.40;;;1.42;;
24216;SDS011;12356;49.386;8.688;2022-10-16T10:30:27;2.80;;;1.70;;
24216;SDS011;12356;49.386;8.688;2022-10-16T10:33:26;4.30;;;1.58;;
24216;SDS011;12356;49.386;8.688;2022-10-16T10:46:41;3.22;;;1.80;;
24216;SDS011;12356;49.386;8.688;2022-10-16T11:00:28;5.18;;;1.80;;
24216;SDS011;12356;49.386;8.688;2022-10-16T11:06:55;7.18;;;2.30;;
24216;SDS011;12356;49.386;8.688;2022-10-16T11:09:15;4.95;;;2.08;;
24216;SDS011;12356;49.386;8.688;2022-10-16T11:14:36;6.07;;;1.80;;
24216;SDS011;12356;49.386;8.688;2022-10-16T11:17:23;3.13;;;1.88;;
24216;SDS011;12356;49.386;8.688;2022-10-16T11:22:36;4.43;;;1.80;;
24216;SDS011;12356;49.386;8.688;2022-10-16T11:25:24;4.53;;;1.70;;
24216;SDS011;12356;49.386;8.688;2022-10-16T11:28:14;5.35;;;2.00;;
24216;SDS011;12356;49.386;8.688;2022-10-16T11:30:51;5.22;;;2.10;;
24216;SDS011;12356;49.386;8.688;2022-10-16T11:33:32;5.90;;;1.90;;
24216;SDS011;12356;49.386;8.688;2022-10-16T11:36:09;7.43;;;1.90;;
24216;SDS011;12356;49.386;8.688;2022-10-16T11:41:35;8.27;;;2.05;;
24216;SDS011;12356;49.386;8.688;2022-10-16T11:49:44;5.13;;;2.10;;
24216;SDS011;12356;49.386;8.688;2022-10-16T11:52:22;3.72;;;1.90;;
24216;SDS011;12356;49.386;8.688;2022-10-16T11:55:04;4.22;;;1.80;;
24216;SDS011;12356;49.386;8.688;2022-10-16T11:57:51;3.83;;;2.22;;
24216;SDS011;12356;49.386;8.688;2022-10-16T12:00:28;4.45;;;1.80;;
24216;SDS011;12356;49.386;8.688;2022-10-16T12:08:36;5.30;;;2.25;;
24216;SDS011;12356;49.386;8.688;2022-10-16T12:11:22;3.38;;;1.65;;
24216;SDS011;12356;49.386;8.688;2022-10-16T12:14:06;6.00;;;1.95;;
24216;SDS011;12356;49.386;8.688;2022-10-16T12:16:51;3.58;;;1.83;;
24216;SDS011;12356;49.386;8.688;2022-10-16T12:19:23;5.13;;;1.80;;
24216;SDS011;12356;49.386;8.688;2022-10-16T12:21:56;7.38;;;2.03;;
24216;SDS011;12356;49.386;8.688;2022-10-16T12:24:33;6.00;;;1.80;;
24216;SDS011;12356;49.386;8.688;2022-10-16T12:27:05;3.42;;;1.80;;
24216;SDS011;12356;49.386;8.688;2022-10-16T12:29:53;2.60;;;1.80;;
24216;SDS011;12356;49.386;8.688;2022-10-16T12:32:30;5.15;;;2.08;;
24216;SDS011;12356;49.386;8.688;2022-10-16T12:35:03;4.07;;;1.90;;
24216;SDS011;12356;49.386;8.688;2022-10-16T12:37:36;5.75;;;2.08;;
24216;SDS011;12356;49.386;8.688;2022-10-16T12:40:12;2.72;;;2.05;;
24216;SDS011;12356;49.386;8.688;2022-10-16T12:42:46;4.63;;;1.92;;
24216;SDS011;12356;49.386;8.688;2022-10-16T12:45:24;5.05;;;1.85;;
24216;SDS011;12356;49.386;8.688;2022-10-16T12:48:01;5.35;;;2.00;;
24216;SDS011;12356;49.386;8.688;2022-10-16T12:50:47;5.90;;;2.10;;
24216;SDS011;12356;49.386;8.688;2022-10-16T12:53:27;3.85;;;2.15;;
24216;SDS011;12356;49.386;8.688;2022-10-16T12:56:16;4.38;;;2.25;;
24216;SDS011;12356;49.386;8.688;2022-10-16T13:02:20;4.63;;;2.10;;
24216;SDS011;12356;49.386;8.688;2022-10-16T13:10:39;6.20;;;1.95;;
24216;SDS011;12356;49.386;8.688;2022-10-16T13:16:48;4.15;;;1.90;;
24216;SDS011;12356;49.386;8.688;2022-10-16T13:27:54;2.70;;;1.90;;
24216;SDS011;12356;49.386;8.688;2022-10-16T13:30:43;6.75;;;2.30;;
24216;SDS011;12356;49.386;8.688;2022-10-16T13:36:19;4.93;;;2.20;;
24216;SDS011;12356;49.386;8.688;2022-10-16T13:41:40;5.72;;;2.10;;
24216;SDS011;12356;49.386;8.688;2022-10-16T13:44:15;5.18;;;1.92;;
24216;SDS011;12356;49.386;8.688;2022-10-16T13:47:02;4.80;;;2.50;;
24216;SDS011;12356;49.386;8.688;2022-10-16T13:49:33;6.82;;;2.30;;
24216;SDS011;12356;49.386;8.688;2022-10-16T13:52:03;4.55;;;2.45;;
24216;SDS011;12356;49.386;8.688;2022-10-16T13:54:34;6.57;;;2.40;;
24216;SDS011;12356;49.386;8.688;2022-10-16T13:57:05;9.60;;;2.20;;
24216;SDS011;12356;49.386;8.688;2022-10-16T13:59:37;5.38;;;2.20;;
24216;SDS011;12356;49.386;8.688;2022-10-16T14:02:14;4.38;;;2.20;;
24216;SDS011;12356;49.386;8.688;2022-10-16T14:04:50;7.80;;;2.40;;
24216;SDS011;12356;49.386;8.688;2022-10-16T14:07:23;4.90;;;2.40;;
24216;SDS011;12356;49.386;8.688;2022-10-16T14:09:56;4.82;;;2.40;;
24216;SDS011;12356;49.386;8.688;2022-10-16T14:12:36;5.55;;;2.30;;
24216;SDS011;12356;49.386;8.688;2022-10-16T14:15:15;5.57;;;2.40;;
24216;SDS011;12356;49.386;8.688;2022-10-16T14:17:49;8.90;;;2.58;;
24216;SDS011;12356;49.386;8.688;2022-10-16T14:20:23;6.15;;;2.33;;
24216;SDS011;12356;49.386;8.688;2022-10-16T14:22:58;5.07;;;2.40;;
24216;SDS011;12356;49.386;8.688;2022-10-16T14:25:49;9.70;;;2.42;;
24216;SDS011;12356;49.386;8.688;2022-10-16T14:28:22;5.43;;;2.47;;
24216;SDS011;12356;49.386;8.688;2022-10-16T14:30:54;5.70;;;2.50;;
24216;SDS011;12356;49.386;8.688;2022-10-16T14:36:02;2.80;;;2.33;;
24216;SDS011;12356;49.386;8.688;2022-10-16T14:38:33;6.13;;;2.35;;
24216;SDS011;12356;49.386;8.688;2022-10-16T14:41:04;8.23;;;2.35;;
24216;SDS011;12356;49.386;8.688;2022-10-16T14:43:39;3.80;;;2.30;;
24216;SDS011;12356;49.386;8.688;2022-10-16T14:46:13;3.95;;;2.53;;
24216;SDS011;12356;49.386;8.688;2022-10-16T14:48:58;5.85;;;2.20;;
24216;SDS011;12356;49.386;8.688;2022-10-16T14:51:39;5.05;;;2.20;;
24216;SDS011;12356;49.386;8.688;2022-10-16T14:59:31;10.68;;;2.58;;
24216;SDS011;12356;49.386;8.688;2022-10-16T15:02:25;5.80;;;2.70;;
24216;SDS011;12356;49.386;8.688;2022-10-16T15:05:15;3.17;;;2.33;;
24216;SDS011;12356;49.386;8.688;2022-10-16T15:07:49;4.35;;;2.30;;
24216;SDS011;12356;49.386;8.688;2022-10-16T15:10:20;8.32;;;2.38;;
24216;SDS011;12356;49.386;8.688;2022-10-16T15:12:53;8.63;;;2.17;;
24216;SDS011;12356;49.386;8.688;2022-10-16T15:17:57;5.05;;;2.28;;
24216;SDS011;12356;49.386;8.688;2022-10-16T15:20:31;5.32;;;2.40;;
24216;SDS011;12356;49.386;8.688;2022-10-16T15:23:11;3.70;;;2.50;;
24216;SDS011;12356;49.386;8.688;2022-10-16T15:28:22;4.95;;;2.55;;
24216;SDS011;12356;49.386;8.688;2022-10-16T15:30:55;4.05;;;2.78;;
24216;SDS011;12356;49.386;8.688;2022-10-16T15:33:27;6.72;;;2.35;;
24216;SDS011;12356;49.386;8.688;2022-10-16T15:36:02;5.88;;;2.38;;
24216;SDS011;12356;49.386;8.688;2022-10-16T15:38:33;2.50;;;1.90;;
24216;SDS011;12356;49.386;8.688;2022-10-16T15:41:04;3.80;;;2.25;;
24216;SDS011;12356;49.386;8.688;2022-10-16T15:43:35;3.78;;;2.25;;
24216;SDS011;12356;49.386;8.688;2022-10-16T15:46:06;7.40;;;2.47;;
24216;SDS011;12356;49.386;8.688;2022-10-16T15:48:39;7.32;;;2.30;;
24216;SDS011;12356;49.386;8.688;2022-10-16T15:51:10;6.40;;;2.50;;
24216;SDS011;12356;49.386;8.688;2022-10-16T15:53:41;8.68;;;2.50;;
24216;SDS011;12356;49.386;8.688;2022-10-16T15:56:12;7.97;;;3.00;;
24216;SDS011;12356;49.386;8.688;2022-10-16T15:58:43;9.35;;;2.30;;
24216;SDS011;12356;49.386;8.688;2022-10-16T16:01:14;5.53;;;2.30;;
24216;SDS011;12356;49.386;8.688;2022-10-16T16:03:45;5.60;;;2.53;;
24216;SDS011;12356;49.386;8.688;2022-10-16T16:06:15;5.32;;;2.60;;
24216;SDS011;12356;49.386;8.688;2022-10-16T16:08:46;6.10;;;2.65;;
24216;SDS011;12356;49.386;8.688;2022-10-16T16:11:17;7.93;;;3.10;;
24216;SDS011;12356;49.386;8.688;2022-10-16T16:13:48;5.20;;;2.47;;
24216;SDS011;12356;49.386;8.688;2022-10-16T16:16:19;5.05;;;1.95;;
24216;SDS011;12356;49.386;8.688;2022-10-16T16:18:52;7.65;;;2.30;;
24216;SDS011;12356;49.386;8.688;2022-10-16T16:21:23;5.10;;;2.10;;
24216;SDS011;12356;49.386;8.688;2022-10-16T16:23:54;8.25;;;1.95;;
24216;SDS011;12356;49.386;8.688;2022-10-16T16:26:25;2.50;;;1.80;;
24216;SDS011;12356;49.386;8.688;2022-10-16T16:29:03;3.67;;;2.08;;
24216;SDS011;12356;49.386;8.688;2022-10-16T16:31:34;2.50;;;1.90;;
24216;SDS011;12356;49.386;8.688;2022-10-16T16:34:05;3.38;;;1.77;;
24216;SDS011;12356;49.386;8.688;2022-10-16T16:36:36;7.95;;;1.83;;
24216;SDS011;12356;49.386;8.688;2022-10-16T16:39:07;2.60;;;1.70;;
24216;SDS011;12356;49.386;8.688;2022-10-16T16:41:38;3.42;;;1.92;;
24216;SDS011;12356;49.386;8.688;2022-10-16T16:44:09;3.58;;;1.85;;
24216;SDS011;12356;49.386;8.688;2022-10-16T16:49:13;5.65;;;1.90;;
24216;SDS011;12356;49.386;8.688;2022-10-16T16:51:44;2.80;;;1.60;;
24216;SDS011;12356;49.386;8.688;2022-10-16T16:54:15;3.60;;;1.80;;
24216;SDS011;12356;49.386;8.688;2022-10-16T16:56:46;3.38;;;1.80;;
24216;SDS011;12356;49.386;8.688;2022-10-16T16:59:18;3.80;;;1.70;;
24216;SDS011;12356;49.386;8.688;2022-10-16T17:01:50;4.78;;;1.95;;
24216;SDS011;12356;49.386;8.688;2022-10-16T17:04:21;4.03;;;1.55;;
24216;SDS011;12356;49.386;8.688;2022-10-16T17:06:52;7.18;;;1.88;;
24216;SDS011;12356;49.386;8.688;2022-10-16T17:11:55;5.03;;;2.00;;
24216;SDS011;12356;49.386;8.688;2022-10-16T17:14:25;2.90;;;1.80;;
24216;SDS011;12356;49.386;8.688;2022-10-16T17:16:56;5.20;;;1.80;;
24216;SDS011;12356;49.386;8.688;2022-10-16T17:19:26;8.27;;;1.90;;
24216;SDS011;12356;49.386;8.688;2022-10-16T17:21:58;6.83;;;1.90;;
24216;SDS011;12356;49.386;8.688;2022-10-16T17:24:29;3.83;;;2.25;;
24216;SDS011;12356;49.386;8.688;2022-10-16T17:26:59;3.50;;;1.83;;
24216;SDS011;12356;49.386;8.688;2022-10-16T17:29:30;5.78;;;2.03;;
24216;SDS011;12356;49.386;8.688;2022-10-16T17:32:00;3.78;;;1.90;;
24216;SDS011;12356;49.386;8.688;2022-10-16T17:34:31;4.28;;;2.20;;
24216;SDS011;12356;49.386;8.688;2022-10-16T17:37:02;5.30;;;1.80;;
24216;SDS011;12356;49.386;8.688;2022-10-16T17:39:32;6.03;;;2.55;;
24216;SDS011;12356;49.386;8.688;2022-10-16T17:42:03;3.85;;;1.90;;